sensor_id;sensor_type;location;lat;lon;timestamp;P1;durP1;ratioP1;P2;durP2;ratioP2
20890;SDS011;10605;52.968;8.844;2022-12-11T00:01:08;42.28;;;23.70;;
20890;SDS011;10605;52.968;8.844;2022-12-11T00:03:35;39.60;;;23.97;;
20890;SDS011;10605;52.968;8.844;2022-12-11T00:06:03;36.65;;;22.80;;
20890;SDS011;10605;52.968;8.844;2022-12-11T00:08:30;39.07;;;22.83;;
20890;SDS011;10605;52.968;8.844;2022-12-11T00:10:56;41.23;;;22.43;;
20890;SDS011;10605;52.968;8.844;2022-12-11T00:13:22;41.42;;;22.88;;
20890;SDS011;10605;52.968;8.844;2022-12-11T00:15:47;36.05;;;21.60;;
20890;SDS011;10605;52.968;8.844;2022-12-11T00:18:13;36.63;;;22.10;;
20890;SDS011;10605;52.968;8.844;2022-12-11T00:20:39;38.53;;;22.37;;
20890;SDS011;10605;52.968;8.844;2022-12-11T00:23:05;37.10;;;22.47;;
20890;SDS011;10605;52.968;8.844;2022-12-11T00:25:30;35.03;;;21.17;;
20890;SDS011;10605;52.968;8.844;2022-12-11T00:27:56;38.42;;;22.25;;
20890;SDS011;10605;52.968;8.844;2022-12-11T00:30:21;41.87;;;22.93;;
20890;SDS011;10605;52.968;8.844;2022-12-11T00:32:47;38.30;;;23.70;;
20890;SDS011;10605;52.968;8.844;2022-12-11T00:35:15;37.33;;;21.87;;
20890;SDS011;10605;52.968;8.844;2022-12-11T00:37:41;36.43;;;21.97;;
20890;SDS011;10605;52.968;8.844;2022-12-11T00:40:07;38.72;;;22.65;;
20890;SDS011;10605;52.968;8.844;2022-12-11T00:42:33;40.87;;;22.87;;
20890;SDS011;10605;52.968;8.844;2022-12-11T00:44:58;38.20;;;22.67;;
20890;SDS011;10605;52.968;8.844;2022-12-11T00:47:24;41.57;;;23.67;;
20890;SDS011;10605;52.968;8.844;2022-12-11T00:49:50;40.83;;;23.70;;
20890;SDS011;10605;52.968;8.844;2022-12-11T00:52:16;41.03;;;23.00;;
20890;SDS011;10605;52.968;8.844;2022-12-11T00:54:42;36.05;;;21.33;;
20890;SDS011;10605;52.968;8.844;2022-12-11T00:57:07;38.03;;;22.67;;
20890;SDS011;10605;52.968;8.844;2022-12-11T00:59:33;37.57;;;22.83;;
20890;SDS011;10605;52.968;8.844;2022-12-11T01:01:59;38.50;;;22.88;;
20890;SDS011;10605;52.968;8.844;2022-12-11T01:04:24;40.70;;;23.53;;
20890;SDS011;10605;52.968;8.844;2022-12-11T01:06:50;38.60;;;24.05;;
20890;SDS011;10605;52.968;8.844;2022-12-11T01:09:16;40.15;;;23.02;;
20890;SDS011;10605;52.968;8.844;2022-12-11T01:12:00;41.33;;;22.37;;
20890;SDS011;10605;52.968;8.844;2022-12-11T01:14:26;38.87;;;23.10;;
20890;SDS011;10605;52.968;8.844;2022-12-11T01:16:52;37.57;;;22.83;;
20890;SDS011;10605;52.968;8.844;2022-12-11T01:19:17;37.35;;;22.55;;
20890;SDS011;10605;52.968;8.844;2022-12-11T01:21:44;39.33;;;23.47;;
20890;SDS011;10605;52.968;8.844;2022-12-11T01:24:10;38.40;;;23.17;;
20890;SDS011;10605;52.968;8.844;2022-12-11T01:26:35;36.83;;;22.83;;
20890;SDS011;10605;52.968;8.844;2022-12-11T01:29:01;39.30;;;23.38;;
20890;SDS011;10605;52.968;8.844;2022-12-11T01:31:27;40.23;;;23.30;;
20890;SDS011;10605;52.968;8.844;2022-12-11T01:33:53;42.27;;;23.47;;
20890;SDS011;10605;52.968;8.844;2022-12-11T01:36:20;42.63;;;23.50;;
20890;SDS011;10605;52.968;8.844;2022-12-11T01:38:47;39.03;;;23.20;;
20890;SDS011;10605;52.968;8.844;2022-12-11T01:41:13;38.40;;;23.90;;
20890;SDS011;10605;52.968;8.844;2022-12-11T01:43:56;42.23;;;23.93;;
20890;SDS011;10605;52.968;8.844;2022-12-11T01:46:23;40.43;;;23.43;;
20890;SDS011;10605;52.968;8.844;2022-12-11T01:48:49;40.97;;;23.73;;
20890;SDS011;10605;52.968;8.844;2022-12-11T01:51:15;38.13;;;23.42;;
20890;SDS011;10605;52.968;8.844;2022-12-11T01:53:42;39.37;;;24.00;;
20890;SDS011;10605;52.968;8.844;2022-12-11T01:56:13;39.17;;;23.63;;
20890;SDS011;10605;52.968;8.844;2022-12-11T01:58:39;36.53;;;22.87;;
20890;SDS011;10605;52.968;8.844;2022-12-11T02:01:11;40.40;;;23.92;;
20890;SDS011;10605;52.968;8.844;2022-12-11T02:03:42;40.58;;;23.98;;
20890;SDS011;10605;52.968;8.844;2022-12-11T02:06:26;43.20;;;24.20;;
20890;SDS011;10605;52.968;8.844;2022-12-11T02:08:58;42.13;;;24.67;;
20890;SDS011;10605;52.968;8.844;2022-12-11T02:11:25;38.97;;;22.80;;
20890;SDS011;10605;52.968;8.844;2022-12-11T02:14:04;43.00;;;23.77;;
20890;SDS011;10605;52.968;8.844;2022-12-11T02:16:59;45.73;;;24.90;;
20890;SDS011;10605;52.968;8.844;2022-12-11T02:30:35;41.38;;;23.40;;
20890;SDS011;10605;52.968;8.844;2022-12-11T02:33:03;42.10;;;24.90;;
20890;SDS011;10605;52.968;8.844;2022-12-11T02:35:35;39.90;;;24.33;;
20890;SDS011;10605;52.968;8.844;2022-12-11T02:38:07;41.83;;;25.27;;
20890;SDS011;10605;52.968;8.844;2022-12-11T02:40:39;41.97;;;24.20;;
20890;SDS011;10605;52.968;8.844;2022-12-11T02:43:09;41.93;;;23.57;;
20890;SDS011;10605;52.968;8.844;2022-12-11T02:45:37;42.63;;;24.20;;
20890;SDS011;10605;52.968;8.844;2022-12-11T02:48:05;46.53;;;23.47;;
20890;SDS011;10605;52.968;8.844;2022-12-11T02:50:34;37.75;;;22.63;;
20890;SDS011;10605;52.968;8.844;2022-12-11T02:53:03;40.17;;;23.13;;
20890;SDS011;10605;52.968;8.844;2022-12-11T02:55:32;40.72;;;23.45;;
20890;SDS011;10605;52.968;8.844;2022-12-11T02:58:06;40.95;;;24.10;;
20890;SDS011;10605;52.968;8.844;2022-12-11T03:00:38;38.63;;;23.67;;
20890;SDS011;10605;52.968;8.844;2022-12-11T03:03:03;41.63;;;24.57;;
20890;SDS011;10605;52.968;8.844;2022-12-11T03:05:30;44.97;;;24.40;;
20890;SDS011;10605;52.968;8.844;2022-12-11T03:07:56;40.80;;;24.60;;
20890;SDS011;10605;52.968;8.844;2022-12-11T03:10:22;38.63;;;23.53;;
20890;SDS011;10605;52.968;8.844;2022-12-11T03:12:48;43.35;;;24.85;;
20890;SDS011;10605;52.968;8.844;2022-12-11T03:15:17;40.13;;;23.83;;
20890;SDS011;10605;52.968;8.844;2022-12-11T03:20:38;45.03;;;24.50;;
20890;SDS011;10605;52.968;8.844;2022-12-11T03:30:55;41.10;;;23.37;;
20890;SDS011;10605;52.968;8.844;2022-12-11T03:33:24;38.23;;;23.00;;
20890;SDS011;10605;52.968;8.844;2022-12-11T03:35:55;37.47;;;22.37;;
20890;SDS011;10605;52.968;8.844;2022-12-11T03:38:30;42.58;;;24.83;;
20890;SDS011;10605;52.968;8.844;2022-12-11T03:41:13;39.10;;;23.20;;
20890;SDS011;10605;52.968;8.844;2022-12-11T03:43:40;41.97;;;24.57;;
20890;SDS011;10605;52.968;8.844;2022-12-11T03:46:06;41.67;;;23.45;;
20890;SDS011;10605;52.968;8.844;2022-12-11T03:48:34;44.13;;;24.03;;
20890;SDS011;10605;52.968;8.844;2022-12-11T03:51:03;44.07;;;25.00;;
20890;SDS011;10605;52.968;8.844;2022-12-11T03:53:32;40.97;;;24.40;;
20890;SDS011;10605;52.968;8.844;2022-12-11T03:56:04;43.73;;;23.93;;
20890;SDS011;10605;52.968;8.844;2022-12-11T03:58:32;44.45;;;24.40;;
20890;SDS011;10605;52.968;8.844;2022-12-11T04:00:58;44.77;;;24.60;;
20890;SDS011;10605;52.968;8.844;2022-12-11T04:03:23;43.10;;;24.55;;
20890;SDS011;10605;52.968;8.844;2022-12-11T04:05:50;45.40;;;25.33;;
20890;SDS011;10605;52.968;8.844;2022-12-11T04:08:17;43.17;;;25.10;;
20890;SDS011;10605;52.968;8.844;2022-12-11T04:10:47;43.37;;;24.23;;
20890;SDS011;10605;52.968;8.844;2022-12-11T04:13:33;39.92;;;23.25;;
20890;SDS011;10605;52.968;8.844;2022-12-11T04:15:59;47.35;;;25.40;;
20890;SDS011;10605;52.968;8.844;2022-12-11T04:18:25;46.50;;;25.47;;
20890;SDS011;10605;52.968;8.844;2022-12-11T04:21:09;41.22;;;23.77;;
20890;SDS011;10605;52.968;8.844;2022-12-11T04:23:53;43.53;;;24.47;;
20890;SDS011;10605;52.968;8.844;2022-12-11T04:26:37;43.95;;;24.10;;
20890;SDS011;10605;52.968;8.844;2022-12-11T04:29:03;43.40;;;23.73;;
20890;SDS011;10605;52.968;8.844;2022-12-11T04:31:29;42.45;;;23.92;;
20890;SDS011;10605;52.968;8.844;2022-12-11T04:33:54;48.27;;;23.87;;
20890;SDS011;10605;52.968;8.844;2022-12-11T04:36:20;42.20;;;23.42;;
20890;SDS011;10605;52.968;8.844;2022-12-11T04:38:46;44.60;;;24.30;;
20890;SDS011;10605;52.968;8.844;2022-12-11T04:41:12;39.80;;;21.98;;
20890;SDS011;10605;52.968;8.844;2022-12-11T04:43:39;44.43;;;24.70;;
20890;SDS011;10605;52.968;8.844;2022-12-11T04:46:08;42.30;;;23.38;;
20890;SDS011;10605;52.968;8.844;2022-12-11T04:48:34;43.63;;;24.27;;
20890;SDS011;10605;52.968;8.844;2022-12-11T04:51:02;43.25;;;23.48;;
20890;SDS011;10605;52.968;8.844;2022-12-11T04:53:28;41.57;;;23.50;;
20890;SDS011;10605;52.968;8.844;2022-12-11T04:55:54;47.97;;;24.65;;
20890;SDS011;10605;52.968;8.844;2022-12-11T04:58:20;40.40;;;24.33;;
20890;SDS011;10605;52.968;8.844;2022-12-11T05:00:46;41.23;;;23.70;;
20890;SDS011;10605;52.968;8.844;2022-12-11T05:03:12;42.97;;;24.40;;
20890;SDS011;10605;52.968;8.844;2022-12-11T05:05:37;41.53;;;23.50;;
20890;SDS011;10605;52.968;8.844;2022-12-11T05:08:03;47.70;;;24.57;;
20890;SDS011;10605;52.968;8.844;2022-12-11T05:10:29;41.35;;;23.25;;
20890;SDS011;10605;52.968;8.844;2022-12-11T05:12:55;41.67;;;23.50;;
20890;SDS011;10605;52.968;8.844;2022-12-11T05:15:21;42.95;;;23.45;;
20890;SDS011;10605;52.968;8.844;2022-12-11T05:17:46;40.88;;;23.05;;
20890;SDS011;10605;52.968;8.844;2022-12-11T05:20:12;42.30;;;24.00;;
20890;SDS011;10605;52.968;8.844;2022-12-11T05:22:38;44.57;;;24.43;;
20890;SDS011;10605;52.968;8.844;2022-12-11T05:25:04;43.80;;;24.67;;
20890;SDS011;10605;52.968;8.844;2022-12-11T05:27:30;42.22;;;23.77;;
20890;SDS011;10605;52.968;8.844;2022-12-11T05:29:57;46.27;;;23.33;;
20890;SDS011;10605;52.968;8.844;2022-12-11T05:32:23;40.78;;;22.60;;
20890;SDS011;10605;52.968;8.844;2022-12-11T05:34:49;46.17;;;23.67;;
20890;SDS011;10605;52.968;8.844;2022-12-11T05:37:15;45.90;;;23.77;;
20890;SDS011;10605;52.968;8.844;2022-12-11T05:39:41;45.27;;;23.60;;
20890;SDS011;10605;52.968;8.844;2022-12-11T05:42:07;39.42;;;22.75;;
20890;SDS011;10605;52.968;8.844;2022-12-11T05:44:33;43.50;;;23.93;;
20890;SDS011;10605;52.968;8.844;2022-12-11T05:46:58;42.43;;;22.73;;
20890;SDS011;10605;52.968;8.844;2022-12-11T05:49:24;39.33;;;23.30;;
20890;SDS011;10605;52.968;8.844;2022-12-11T05:51:50;42.53;;;23.93;;
20890;SDS011;10605;52.968;8.844;2022-12-11T05:54:15;45.20;;;23.47;;
20890;SDS011;10605;52.968;8.844;2022-12-11T05:56:41;45.33;;;23.98;;
20890;SDS011;10605;52.968;8.844;2022-12-11T05:59:07;42.33;;;23.40;;
20890;SDS011;10605;52.968;8.844;2022-12-11T06:01:34;45.85;;;23.17;;
20890;SDS011;10605;52.968;8.844;2022-12-11T06:04:02;43.47;;;22.60;;
20890;SDS011;10605;52.968;8.844;2022-12-11T06:06:29;42.88;;;24.40;;
20890;SDS011;10605;52.968;8.844;2022-12-11T06:08:56;46.53;;;23.63;;
20890;SDS011;10605;52.968;8.844;2022-12-11T06:11:23;38.85;;;22.00;;
20890;SDS011;10605;52.968;8.844;2022-12-11T06:13:50;44.97;;;23.38;;
20890;SDS011;10605;52.968;8.844;2022-12-11T06:16:17;36.33;;;21.38;;
20890;SDS011;10605;52.968;8.844;2022-12-11T06:18:43;43.87;;;22.63;;
20890;SDS011;10605;52.968;8.844;2022-12-11T06:21:10;40.80;;;21.67;;
20890;SDS011;10605;52.968;8.844;2022-12-11T06:23:41;37.10;;;21.63;;
20890;SDS011;10605;52.968;8.844;2022-12-11T06:26:07;46.92;;;23.23;;
20890;SDS011;10605;52.968;8.844;2022-12-11T06:28:34;47.27;;;24.17;;
20890;SDS011;10605;52.968;8.844;2022-12-11T06:31:00;41.40;;;23.77;;
20890;SDS011;10605;52.968;8.844;2022-12-11T06:33:26;41.07;;;22.87;;
20890;SDS011;10605;52.968;8.844;2022-12-11T06:35:52;41.37;;;23.07;;
20890;SDS011;10605;52.968;8.844;2022-12-11T06:38:18;43.77;;;24.93;;
20890;SDS011;10605;52.968;8.844;2022-12-11T06:40:43;39.40;;;21.50;;
20890;SDS011;10605;52.968;8.844;2022-12-11T06:43:09;37.83;;;22.63;;
20890;SDS011;10605;52.968;8.844;2022-12-11T06:45:37;42.73;;;22.73;;
20890;SDS011;10605;52.968;8.844;2022-12-11T06:48:03;40.95;;;23.45;;
20890;SDS011;10605;52.968;8.844;2022-12-11T06:50:29;41.87;;;22.47;;
20890;SDS011;10605;52.968;8.844;2022-12-11T06:52:57;43.23;;;23.03;;
20890;SDS011;10605;52.968;8.844;2022-12-11T06:55:23;42.78;;;22.60;;
20890;SDS011;10605;52.968;8.844;2022-12-11T06:57:49;37.70;;;22.33;;
20890;SDS011;10605;52.968;8.844;2022-12-11T07:00:14;40.33;;;23.33;;
20890;SDS011;10605;52.968;8.844;2022-12-11T07:02:40;44.60;;;23.42;;
20890;SDS011;10605;52.968;8.844;2022-12-11T07:05:06;40.72;;;22.92;;
20890;SDS011;10605;52.968;8.844;2022-12-11T07:07:32;39.93;;;22.07;;
20890;SDS011;10605;52.968;8.844;2022-12-11T07:09:58;44.63;;;24.13;;
20890;SDS011;10605;52.968;8.844;2022-12-11T07:12:24;41.23;;;23.20;;
20890;SDS011;10605;52.968;8.844;2022-12-11T07:14:49;38.43;;;21.40;;
20890;SDS011;10605;52.968;8.844;2022-12-11T07:17:15;42.22;;;22.90;;
20890;SDS011;10605;52.968;8.844;2022-12-11T07:19:40;44.35;;;22.75;;
20890;SDS011;10605;52.968;8.844;2022-12-11T07:22:06;41.23;;;22.90;;
20890;SDS011;10605;52.968;8.844;2022-12-11T07:24:32;41.13;;;23.20;;
20890;SDS011;10605;52.968;8.844;2022-12-11T07:26:58;41.88;;;21.95;;
20890;SDS011;10605;52.968;8.844;2022-12-11T07:29:23;41.70;;;22.93;;
20890;SDS011;10605;52.968;8.844;2022-12-11T07:31:49;39.70;;;23.13;;
20890;SDS011;10605;52.968;8.844;2022-12-11T07:34:15;43.47;;;23.77;;
20890;SDS011;10605;52.968;8.844;2022-12-11T07:36:41;39.77;;;22.80;;
20890;SDS011;10605;52.968;8.844;2022-12-11T07:39:07;39.80;;;23.33;;
20890;SDS011;10605;52.968;8.844;2022-12-11T07:41:36;40.50;;;23.23;;
20890;SDS011;10605;52.968;8.844;2022-12-11T07:44:02;37.87;;;22.00;;
20890;SDS011;10605;52.968;8.844;2022-12-11T07:46:28;43.93;;;23.43;;
20890;SDS011;10605;52.968;8.844;2022-12-11T07:48:56;42.83;;;23.03;;
20890;SDS011;10605;52.968;8.844;2022-12-11T07:51:23;41.90;;;23.13;;
20890;SDS011;10605;52.968;8.844;2022-12-11T07:53:52;42.33;;;22.98;;
20890;SDS011;10605;52.968;8.844;2022-12-11T07:56:19;43.00;;;23.10;;
20890;SDS011;10605;52.968;8.844;2022-12-11T07:58:46;41.00;;;22.17;;
20890;SDS011;10605;52.968;8.844;2022-12-11T08:01:16;41.40;;;22.63;;
20890;SDS011;10605;52.968;8.844;2022-12-11T08:03:44;39.57;;;21.83;;
20890;SDS011;10605;52.968;8.844;2022-12-11T08:06:10;38.90;;;21.45;;
20890;SDS011;10605;52.968;8.844;2022-12-11T08:08:36;41.85;;;22.88;;
20890;SDS011;10605;52.968;8.844;2022-12-11T08:11:02;40.77;;;23.27;;
20890;SDS011;10605;52.968;8.844;2022-12-11T08:13:29;44.95;;;23.00;;
20890;SDS011;10605;52.968;8.844;2022-12-11T08:15:55;51.30;;;23.07;;
20890;SDS011;10605;52.968;8.844;2022-12-11T08:18:21;39.22;;;22.58;;
20890;SDS011;10605;52.968;8.844;2022-12-11T08:20:46;42.40;;;22.57;;
20890;SDS011;10605;52.968;8.844;2022-12-11T08:23:12;36.15;;;21.15;;
20890;SDS011;10605;52.968;8.844;2022-12-11T08:25:38;41.90;;;23.00;;
20890;SDS011;10605;52.968;8.844;2022-12-11T08:28:04;42.07;;;22.37;;
20890;SDS011;10605;52.968;8.844;2022-12-11T08:30:29;38.05;;;21.83;;
20890;SDS011;10605;52.968;8.844;2022-12-11T08:32:56;39.70;;;22.75;;
20890;SDS011;10605;52.968;8.844;2022-12-11T08:35:21;42.60;;;22.70;;
20890;SDS011;10605;52.968;8.844;2022-12-11T08:37:47;41.13;;;21.95;;
20890;SDS011;10605;52.968;8.844;2022-12-11T08:40:13;41.85;;;23.42;;
20890;SDS011;10605;52.968;8.844;2022-12-11T08:42:38;41.22;;;22.77;;
20890;SDS011;10605;52.968;8.844;2022-12-11T08:45:04;40.43;;;22.40;;
20890;SDS011;10605;52.968;8.844;2022-12-11T08:47:30;37.83;;;21.83;;
20890;SDS011;10605;52.968;8.844;2022-12-11T08:49:56;36.13;;;21.05;;
20890;SDS011;10605;52.968;8.844;2022-12-11T08:52:22;39.67;;;22.23;;
20890;SDS011;10605;52.968;8.844;2022-12-11T08:54:47;38.10;;;21.83;;
20890;SDS011;10605;52.968;8.844;2022-12-11T08:57:13;39.13;;;22.20;;
20890;SDS011;10605;52.968;8.844;2022-12-11T08:59:39;40.67;;;22.07;;
20890;SDS011;10605;52.968;8.844;2022-12-11T09:02:04;38.20;;;21.33;;
20890;SDS011;10605;52.968;8.844;2022-12-11T09:04:30;46.17;;;23.13;;
20890;SDS011;10605;52.968;8.844;2022-12-11T09:06:56;41.30;;;21.52;;
20890;SDS011;10605;52.968;8.844;2022-12-11T09:09:22;38.47;;;22.57;;
20890;SDS011;10605;52.968;8.844;2022-12-11T09:11:48;39.47;;;21.53;;
20890;SDS011;10605;52.968;8.844;2022-12-11T09:14:14;35.25;;;20.08;;
20890;SDS011;10605;52.968;8.844;2022-12-11T09:16:40;39.50;;;21.63;;
20890;SDS011;10605;52.968;8.844;2022-12-11T09:19:07;40.55;;;21.70;;
20890;SDS011;10605;52.968;8.844;2022-12-11T09:21:37;43.33;;;21.60;;
20890;SDS011;10605;52.968;8.844;2022-12-11T09:24:02;37.13;;;21.40;;
20890;SDS011;10605;52.968;8.844;2022-12-11T09:26:28;40.10;;;20.75;;
20890;SDS011;10605;52.968;8.844;2022-12-11T09:28:54;36.72;;;21.90;;
20890;SDS011;10605;52.968;8.844;2022-12-11T09:31:21;38.97;;;22.27;;
20890;SDS011;10605;52.968;8.844;2022-12-11T09:33:49;41.85;;;21.95;;
20890;SDS011;10605;52.968;8.844;2022-12-11T09:36:17;40.23;;;22.10;;
20890;SDS011;10605;52.968;8.844;2022-12-11T09:38:43;41.03;;;21.55;;
20890;SDS011;10605;52.968;8.844;2022-12-11T09:46:46;34.90;;;20.15;;
20890;SDS011;10605;52.968;8.844;2022-12-11T09:49:20;37.42;;;20.92;;
20890;SDS011;10605;52.968;8.844;2022-12-11T09:51:49;37.72;;;19.70;;
20890;SDS011;10605;52.968;8.844;2022-12-11T09:54:38;33.33;;;20.10;;
20890;SDS011;10605;52.968;8.844;2022-12-11T09:57:36;38.53;;;21.30;;
20890;SDS011;10605;52.968;8.844;2022-12-11T10:00:06;34.50;;;19.58;;
20890;SDS011;10605;52.968;8.844;2022-12-11T10:11:43;39.00;;;21.37;;
20890;SDS011;10605;52.968;8.844;2022-12-11T10:17:34;36.10;;;20.17;;
20890;SDS011;10605;52.968;8.844;2022-12-11T10:22:46;39.15;;;20.77;;
20890;SDS011;10605;52.968;8.844;2022-12-11T10:25:26;33.40;;;19.45;;
20890;SDS011;10605;52.968;8.844;2022-12-11T10:27:55;35.30;;;20.30;;
20890;SDS011;10605;52.968;8.844;2022-12-11T10:30:29;35.47;;;20.55;;
20890;SDS011;10605;52.968;8.844;2022-12-11T10:35:40;39.47;;;21.13;;
20890;SDS011;10605;52.968;8.844;2022-12-11T10:40:59;41.15;;;21.30;;
20890;SDS011;10605;52.968;8.844;2022-12-11T10:46:26;38.70;;;21.35;;
20890;SDS011;10605;52.968;8.844;2022-12-11T10:48:54;43.20;;;20.13;;
20890;SDS011;10605;52.968;8.844;2022-12-11T10:53:55;42.92;;;20.42;;
20890;SDS011;10605;52.968;8.844;2022-12-11T10:56:25;38.08;;;21.35;;
20890;SDS011;10605;52.968;8.844;2022-12-11T10:58:52;42.95;;;21.00;;
20890;SDS011;10605;52.968;8.844;2022-12-11T11:01:20;39.50;;;20.40;;
20890;SDS011;10605;52.968;8.844;2022-12-11T11:06:27;38.97;;;20.23;;
20890;SDS011;10605;52.968;8.844;2022-12-11T11:08:54;42.15;;;22.20;;
20890;SDS011;10605;52.968;8.844;2022-12-11T11:13:50;43.72;;;22.08;;
20890;SDS011;10605;52.968;8.844;2022-12-11T11:16:18;37.35;;;20.15;;
20890;SDS011;10605;52.968;8.844;2022-12-11T11:18:52;37.03;;;20.80;;
20890;SDS011;10605;52.968;8.844;2022-12-11T11:21:21;37.80;;;21.15;;
20890;SDS011;10605;52.968;8.844;2022-12-11T11:23:48;33.30;;;18.92;;
20890;SDS011;10605;52.968;8.844;2022-12-11T11:26:15;38.50;;;19.98;;
20890;SDS011;10605;52.968;8.844;2022-12-11T11:28:46;33.75;;;19.92;;
20890;SDS011;10605;52.968;8.844;2022-12-11T11:31:14;36.53;;;19.88;;
20890;SDS011;10605;52.968;8.844;2022-12-11T11:36:29;46.20;;;22.27;;
20890;SDS011;10605;52.968;8.844;2022-12-11T11:44:20;38.90;;;20.67;;
20890;SDS011;10605;52.968;8.844;2022-12-11T11:47:26;41.67;;;21.15;;
20890;SDS011;10605;52.968;8.844;2022-12-11T11:50:06;40.10;;;21.15;;
20890;SDS011;10605;52.968;8.844;2022-12-11T11:58:44;43.08;;;21.23;;
20890;SDS011;10605;52.968;8.844;2022-12-11T12:01:20;42.17;;;21.00;;
20890;SDS011;10605;52.968;8.844;2022-12-11T12:03:46;41.20;;;20.42;;
20890;SDS011;10605;52.968;8.844;2022-12-11T12:12:02;40.22;;;21.33;;
20890;SDS011;10605;52.968;8.844;2022-12-11T12:14:30;39.22;;;20.80;;
20890;SDS011;10605;52.968;8.844;2022-12-11T12:22:19;48.15;;;22.13;;
20890;SDS011;10605;52.968;8.844;2022-12-11T12:27:44;40.13;;;21.73;;
20890;SDS011;10605;52.968;8.844;2022-12-11T12:30:17;40.45;;;22.10;;
20890;SDS011;10605;52.968;8.844;2022-12-11T12:35:35;40.65;;;22.23;;
20890;SDS011;10605;52.968;8.844;2022-12-11T12:38:09;46.45;;;23.33;;
20890;SDS011;10605;52.968;8.844;2022-12-11T12:48:36;41.65;;;21.00;;
20890;SDS011;10605;52.968;8.844;2022-12-11T12:51:02;41.28;;;21.25;;
20890;SDS011;10605;52.968;8.844;2022-12-11T12:53:29;40.80;;;22.65;;
20890;SDS011;10605;52.968;8.844;2022-12-11T12:55:57;43.00;;;22.00;;
20890;SDS011;10605;52.968;8.844;2022-12-11T13:06:15;42.70;;;22.83;;
20890;SDS011;10605;52.968;8.844;2022-12-11T13:08:51;39.65;;;22.02;;
20890;SDS011;10605;52.968;8.844;2022-12-11T13:11:18;50.30;;;23.27;;
20890;SDS011;10605;52.968;8.844;2022-12-11T13:14:01;43.20;;;22.63;;
20890;SDS011;10605;52.968;8.844;2022-12-11T13:16:39;46.15;;;22.73;;
20890;SDS011;10605;52.968;8.844;2022-12-11T13:19:15;45.42;;;22.50;;
20890;SDS011;10605;52.968;8.844;2022-12-11T13:22:21;45.35;;;23.83;;
20890;SDS011;10605;52.968;8.844;2022-12-11T13:24:46;48.20;;;22.60;;
20890;SDS011;10605;52.968;8.844;2022-12-11T13:27:22;50.78;;;23.73;;
20890;SDS011;10605;52.968;8.844;2022-12-11T13:29:49;45.92;;;23.60;;
20890;SDS011;10605;52.968;8.844;2022-12-11T13:34:42;48.80;;;23.25;;
20890;SDS011;10605;52.968;8.844;2022-12-11T13:37:26;47.45;;;23.90;;
20890;SDS011;10605;52.968;8.844;2022-12-11T13:39:59;44.08;;;22.38;;
20890;SDS011;10605;52.968;8.844;2022-12-11T13:42:32;44.97;;;23.33;;
20890;SDS011;10605;52.968;8.844;2022-12-11T13:45:03;51.33;;;24.52;;
20890;SDS011;10605;52.968;8.844;2022-12-11T13:47:29;48.50;;;23.80;;
20890;SDS011;10605;52.968;8.844;2022-12-11T13:50:14;47.70;;;24.17;;
20890;SDS011;10605;52.968;8.844;2022-12-11T13:55:40;51.40;;;24.42;;
20890;SDS011;10605;52.968;8.844;2022-12-11T13:58:19;50.50;;;24.70;;
20890;SDS011;10605;52.968;8.844;2022-12-11T14:01:00;49.88;;;24.38;;
20890;SDS011;10605;52.968;8.844;2022-12-11T14:03:35;54.33;;;25.30;;
20890;SDS011;10605;52.968;8.844;2022-12-11T14:06:03;56.38;;;26.08;;
20890;SDS011;10605;52.968;8.844;2022-12-11T14:08:34;49.88;;;24.90;;
20890;SDS011;10605;52.968;8.844;2022-12-11T14:11:02;49.20;;;24.63;;
20890;SDS011;10605;52.968;8.844;2022-12-11T14:13:35;54.17;;;24.67;;
20890;SDS011;10605;52.968;8.844;2022-12-11T14:16:04;53.67;;;26.63;;
20890;SDS011;10605;52.968;8.844;2022-12-11T14:18:30;53.28;;;25.17;;
20890;SDS011;10605;52.968;8.844;2022-12-11T14:21:01;57.15;;;26.40;;
20890;SDS011;10605;52.968;8.844;2022-12-11T14:23:32;56.67;;;26.33;;
20890;SDS011;10605;52.968;8.844;2022-12-11T14:26:03;56.10;;;26.55;;
20890;SDS011;10605;52.968;8.844;2022-12-11T14:28:43;54.22;;;25.85;;
20890;SDS011;10605;52.968;8.844;2022-12-11T14:31:11;53.63;;;25.50;;
20890;SDS011;10605;52.968;8.844;2022-12-11T14:33:42;55.13;;;26.40;;
20890;SDS011;10605;52.968;8.844;2022-12-11T14:36:12;53.47;;;24.40;;
20890;SDS011;10605;52.968;8.844;2022-12-11T14:38:51;48.13;;;23.48;;
20890;SDS011;10605;52.968;8.844;2022-12-11T14:41:24;52.58;;;24.20;;
20890;SDS011;10605;52.968;8.844;2022-12-11T14:44:13;48.30;;;23.95;;
20890;SDS011;10605;52.968;8.844;2022-12-11T14:46:51;43.22;;;23.50;;
20890;SDS011;10605;52.968;8.844;2022-12-11T14:49:38;47.55;;;24.38;;
20890;SDS011;10605;52.968;8.844;2022-12-11T14:52:08;52.88;;;23.67;;
20890;SDS011;10605;52.968;8.844;2022-12-11T14:54:42;53.45;;;24.67;;
20890;SDS011;10605;52.968;8.844;2022-12-11T14:57:18;53.05;;;25.25;;
20890;SDS011;10605;52.968;8.844;2022-12-11T14:59:47;53.10;;;25.17;;
20890;SDS011;10605;52.968;8.844;2022-12-11T15:02:23;54.28;;;24.70;;
20890;SDS011;10605;52.968;8.844;2022-12-11T15:07:35;54.63;;;26.13;;
20890;SDS011;10605;52.968;8.844;2022-12-11T15:10:01;55.38;;;25.23;;
20890;SDS011;10605;52.968;8.844;2022-12-11T15:12:28;57.05;;;26.50;;
20890;SDS011;10605;52.968;8.844;2022-12-11T15:14:54;57.38;;;26.27;;
20890;SDS011;10605;52.968;8.844;2022-12-11T15:17:25;53.97;;;25.52;;
20890;SDS011;10605;52.968;8.844;2022-12-11T15:19:53;58.00;;;26.70;;
20890;SDS011;10605;52.968;8.844;2022-12-11T15:22:23;59.95;;;27.33;;
20890;SDS011;10605;52.968;8.844;2022-12-11T15:24:53;61.13;;;27.35;;
20890;SDS011;10605;52.968;8.844;2022-12-11T15:29:50;58.55;;;27.75;;
20890;SDS011;10605;52.968;8.844;2022-12-11T15:32:17;63.25;;;28.73;;
20890;SDS011;10605;52.968;8.844;2022-12-11T15:34:46;61.67;;;28.13;;
20890;SDS011;10605;52.968;8.844;2022-12-11T15:37:27;61.00;;;28.65;;
20890;SDS011;10605;52.968;8.844;2022-12-11T15:39:58;56.80;;;27.30;;
20890;SDS011;10605;52.968;8.844;2022-12-11T15:42:29;61.17;;;27.95;;
20890;SDS011;10605;52.968;8.844;2022-12-11T15:44:55;62.75;;;29.08;;
20890;SDS011;10605;52.968;8.844;2022-12-11T15:47:23;56.72;;;28.00;;
20890;SDS011;10605;52.968;8.844;2022-12-11T15:50:01;58.55;;;28.05;;
20890;SDS011;10605;52.968;8.844;2022-12-11T15:52:36;68.00;;;29.40;;
20890;SDS011;10605;52.968;8.844;2022-12-11T15:55:02;61.15;;;29.67;;
20890;SDS011;10605;52.968;8.844;2022-12-11T15:57:30;65.18;;;29.38;;
20890;SDS011;10605;52.968;8.844;2022-12-11T15:59:55;68.32;;;28.92;;
20890;SDS011;10605;52.968;8.844;2022-12-11T16:02:22;60.53;;;29.98;;
20890;SDS011;10605;52.968;8.844;2022-12-11T16:04:48;61.50;;;30.13;;
20890;SDS011;10605;52.968;8.844;2022-12-11T16:07:16;64.53;;;30.27;;
20890;SDS011;10605;52.968;8.844;2022-12-11T16:09:44;58.20;;;28.48;;
20890;SDS011;10605;52.968;8.844;2022-12-11T16:12:10;57.72;;;28.30;;
20890;SDS011;10605;52.968;8.844;2022-12-11T16:14:38;60.70;;;28.88;;
20890;SDS011;10605;52.968;8.844;2022-12-11T16:17:05;62.33;;;29.05;;
20890;SDS011;10605;52.968;8.844;2022-12-11T16:19:31;60.95;;;28.80;;
20890;SDS011;10605;52.968;8.844;2022-12-11T16:21:57;67.40;;;30.40;;
20890;SDS011;10605;52.968;8.844;2022-12-11T16:24:23;58.40;;;29.92;;
20890;SDS011;10605;52.968;8.844;2022-12-11T16:26:49;64.82;;;30.48;;